AirNav   ATP
 
 1416 users online  

U30 Temple Bar Airport
Temple Bar, Arizona, USA


FAA INFORMATION EFFECTIVE 01 FEBRUARY 2018

Location

FAA Identifier: U30
Lat/Long: 36-01-13.6000N / 114-20-05.7000W
36-01.226667N / 114-20.095000W
36.0204444 / -114.3349167
(estimated)
Elevation: 1549 ft. / 472.1 m (surveyed)
Variation: 14E (1985)
From city: 1 mile SW of TEMPLE BAR, AZ
Time zone: UTC -7 (year round; does not observe DST)
Zip code: 86443

Airport Operations

Airport use: Open to the public
Activation date: 08/1961
Control tower: no
ARTCC: LOS ANGELES CENTER
FSS: PRESCOTT FLIGHT SERVICE STATION
NOTAMs facility: PRC (NOTAM-D service available)
Attendance: UNATNDD
Wind indicator: yes
Segmented circle: yes

Airport Communications

CTAF/UNICOM: 122.8
  • CALL 122.8 FOR TRANSPORTATION.

Nearby radio navigation aids

VOR radial/distance  VOR name  Freq  Var
BLDr072/25.7BOULDER CITY VORTAC116.7015E

Airport Services

Parking: tiedowns
Airframe service: NONE
Powerplant service: NONE
Bottled oxygen: NONE
Bulk oxygen: NONE

Runway Information

Runway 18/36

Dimensions: 3500 x 50 ft. / 1067 x 15 m
Surface: asphalt, in fair condition
RY 18/36 GRASS GROWING THRU NMRS CRACKS ON RY.
Weight bearing capacity: 
Single wheel: 10.0
RUNWAY 18  RUNWAY 36
Latitude: 36-01.509333N36-00.945000N
Longitude: 114-20.021000W114-20.169000W
Gradient: 3.4%3.4%
Traffic pattern: rightleft
Markings: basic, in fair conditionbasic, in fair condition
Runway end identifier lights: nono
Obstructions: none
RWY 18 +2 FT. SCATTERED BRUSH 0 FT.-100FT. FROM THRESHOLD, 0B
120 ft. pline, 3000 ft. from runway, 23:1 slope to clear
RY 36 RISING TERRAIN BEGINS AT RY END AND CONTINUES FULL LENGTH OF APCH.

Airport Ownership and Management from official FAA records

Ownership: Publicly-owned
Owner: NATIONAL PARK SERVICE
601 NEVADA HWY
BOULDER CITY, NV 89005
Phone (702) 293-2011
ALTERNATE PHONE: 702-293-8998. (24 HR NATIONAL PARK SERVICE DISPATCH)
Manager: SCOTT TAYLOR
601 NEVADA HWY
BOULDER CITY, NV 89005
Phone (702) 293-2011

Airport Operational Statistics

Aircraft operations: avg 79/month *
74% transient general aviation
26% air taxi
* for 12-month period ending 18 April 2016

Additional Remarks

BE ALERT FOR VEHICULAR TRAFFIC ON RY.
AIRCRAFT RAMP IN FAILED CONDITION WITH RUTS DUE TO EROSION.
LANDING IS RECOMMENDED UPHILL TO THE SOUTH. DUE TO +2% UP SLOPE FROM RUNWAY 18 TO RUNWAY 36
DO NOT USE TIE DOWN AREA AS PARL TWY; BACK TAXI ON RY.
RY 36 TERRAIN RISES AT CONSTANT RATE ABOVE RY.
RY 18/36 20 FT BERM 180 FT WEST ALONG FULL LENGTH OF RY.
WILDLIFE ON & INVOF ARPT.
BE ALERT FOR LOOSE ROCK ON NORTH TURN-A-ROUND AND RY.

Instrument Procedures

There are no published instrument procedures at U30.

Some nearby airports with instrument procedures:

KBVU - Boulder City Municipal Airport (26 nm W)
KLSV - Nellis Air Force Base (36 nm W)
KHND - Henderson Executive Airport (39 nm W)
KLAS - Mc Carran International Airport (40 nm W)
KVGT - North Las Vegas Airport (43 nm W)
 
Loc | Ops | Rwys | IFR | FBO | Links
Com | Nav | Svcs | Stats | Notes

AirNav Hotels Sweepstakes
 
Area around U30 (Temple Bar Airport)
 
Road maps at: MapQuest Bing Google
 
Aerial photo
WARNING: Photo may not be current or correct
Aerial photo of U30 (Temple Bar Airport)
Photo by Jim Armstrong
Photo taken 15-Nov-2006

Do you have a better or more recent aerial photo of Temple Bar Airport that you would like to share? If so, please send us your photo.

 
Sectional chart

 
Airport distance calculator
Flying to Temple Bar Airport? Find the distance to fly.

From to U30

Sunrise and sunset
Times for 19-Feb-2018
 Local
(UTC-7)
 Zulu
(UTC)
Morning civil twilight06:5513:55
Sunrise07:2114:21
Sunset18:2101:21
Evening civil twilight18:4801:48

Current date and time
Zulu (UTC)  19-Feb-2018 18:43:04
Local (UTC-7)  19-Feb-2018 11:43:04
 
METAR
KBVU 
26nm W 
191815Z AUTO 29018G25KT 10SM FEW080 09/M16 A2969 RMK AO2
KLSV 
35nm W 
191758Z AUTO 27021G29KT 10SM BKN100 09/M20 A2968 RMK AO2 PK WND 27029/54 SLP045 T00861203 10098 20071 52023 $
KHND 
39nm W 
191756Z 12004KT 10SM FEW039 BKN065 OVC100 06/M09 A2971 RMK AO2 SLP059 T00611094 10083 20050 51021 $
KLAS 
40nm W 
191756Z 33013KT 10SM SCT080 BKN100 09/M14 A2969 RMK AO2 PK WND 31026/1700 SLP048 VIRGA E-S-SW T00891144 10094 20067 51021
KVGT 
43nm W 
191753Z 34018G28KT 10SM FEW095 09/M19 A2967 RMK AO2 PK WND 32033/1711 SLP059 T00891194 10089 20061 51019
TAF
KLSV 
35nm W 
191818Z 1918/2021 27015G25KT 9999 SCT060 BKN100 520009 QNH2956INS BECMG 2002/2003 30012G18KT 9999 BKN150 QNH2975INS BECMG 2008/2009 34009KT 9999 SCT100 BKN150 QNH2988INS TX12/1922Z TN02/2014Z
KHND 
39nm W 
191720Z 1918/2018 27014G22KT P6SM SCT080 BKN100 FM192100 27014G22KT P6SM SCT100 FM200400 24011KT P6SM FEW120 FM201100 18008KT P6SM SKC
KLAS 
40nm W 
191720Z 1918/2024 29015G25KT P6SM SCT080 BKN100 FM192000 29015G25KT P6SM SCT100 FM200400 28011KT P6SM FEW120 FM201100 25008KT P6SM SKC FM201800 07007KT P6SM FEW120
KVGT 
43nm W 
191720Z 1918/2018 31018G28KT P6SM SCT080 BKN100 FM191900 31018G28KT P6SM SCT100 FM200400 33014G22KT P6SM FEW120 FM201300 34010KT P6SM SKC
NOTAMs
Click for the latest NOTAMs
NOTAMs are issued by the DoD/FAA and will open in a separate window not controlled by AirNav.

 

 
 

Would you like to see your business listed on this page?

 If your business provides an interesting product or service to pilots, flight crews, aircraft, or users of the Temple Bar Airport, you should consider listing it here.  To start the listing process, click on the button below
 
Add a business
 

Other Pages about Temple Bar Airport

Update a link
 
Copyright © AirNav, LLC. All rights reserved. Privacy Policy  Contact